sensor_id;sensor_type;location;lat;lon;timestamp;P1;durP1;ratioP1;P2;durP2;ratioP2
39898;SDS011;25571;47.876;10.642;2023-02-01T00:01:48;7.00;;;4.63;;
39898;SDS011;25571;47.876;10.642;2023-02-01T00:04:13;6.43;;;4.32;;
39898;SDS011;25571;47.876;10.642;2023-02-01T00:06:39;7.57;;;4.25;;
39898;SDS011;25571;47.876;10.642;2023-02-01T00:09:05;4.60;;;4.13;;
39898;SDS011;25571;47.876;10.642;2023-02-01T00:11:30;4.53;;;3.88;;
39898;SDS011;25571;47.876;10.642;2023-02-01T00:13:56;4.88;;;3.88;;
39898;SDS011;25571;47.876;10.642;2023-02-01T00:16:23;6.20;;;4.40;;
39898;SDS011;25571;47.876;10.642;2023-02-01T00:19:12;7.72;;;4.47;;
39898;SDS011;25571;47.876;10.642;2023-02-01T00:21:39;5.97;;;4.05;;
39898;SDS011;25571;47.876;10.642;2023-02-01T00:24:05;6.28;;;4.30;;
39898;SDS011;25571;47.876;10.642;2023-02-01T00:26:32;6.57;;;4.72;;
39898;SDS011;25571;47.876;10.642;2023-02-01T00:29:07;5.43;;;4.03;;
39898;SDS011;25571;47.876;10.642;2023-02-01T00:31:37;5.10;;;4.18;;
39898;SDS011;25571;47.876;10.642;2023-02-01T00:34:03;6.03;;;3.92;;
39898;SDS011;25571;47.876;10.642;2023-02-01T00:36:28;5.07;;;3.80;;
39898;SDS011;25571;47.876;10.642;2023-02-01T00:38:54;7.22;;;4.20;;
39898;SDS011;25571;47.876;10.642;2023-02-01T00:41:20;6.05;;;4.50;;
39898;SDS011;25571;47.876;10.642;2023-02-01T00:43:47;5.57;;;3.78;;
39898;SDS011;25571;47.876;10.642;2023-02-01T00:46:13;4.53;;;4.05;;
39898;SDS011;25571;47.876;10.642;2023-02-01T00:48:40;4.80;;;3.97;;
39898;SDS011;25571;47.876;10.642;2023-02-01T00:51:07;5.25;;;3.90;;
39898;SDS011;25571;47.876;10.642;2023-02-01T00:53:35;6.13;;;4.78;;
39898;SDS011;25571;47.876;10.642;2023-02-01T00:56:01;5.38;;;4.50;;
39898;SDS011;25571;47.876;10.642;2023-02-01T00:58:28;6.35;;;4.75;;
39898;SDS011;25571;47.876;10.642;2023-02-01T01:01:01;6.78;;;4.68;;
39898;SDS011;25571;47.876;10.642;2023-02-01T01:03:31;6.40;;;4.60;;
39898;SDS011;25571;47.876;10.642;2023-02-01T01:06:02;7.13;;;4.80;;
39898;SDS011;25571;47.876;10.642;2023-02-01T01:08:30;5.18;;;4.45;;
39898;SDS011;25571;47.876;10.642;2023-02-01T01:10:55;6.32;;;4.80;;
39898;SDS011;25571;47.876;10.642;2023-02-01T01:13:21;5.63;;;4.28;;
39898;SDS011;25571;47.876;10.642;2023-02-01T01:15:47;6.72;;;4.85;;
39898;SDS011;25571;47.876;10.642;2023-02-01T01:18:12;5.35;;;4.57;;
39898;SDS011;25571;47.876;10.642;2023-02-01T01:20:39;8.13;;;4.68;;
39898;SDS011;25571;47.876;10.642;2023-02-01T01:23:06;7.03;;;4.95;;
39898;SDS011;25571;47.876;10.642;2023-02-01T01:25:32;6.65;;;4.80;;
39898;SDS011;25571;47.876;10.642;2023-02-01T01:28:01;6.22;;;4.82;;
39898;SDS011;25571;47.876;10.642;2023-02-01T01:30:27;5.22;;;4.60;;
39898;SDS011;25571;47.876;10.642;2023-02-01T01:32:53;6.97;;;5.03;;
39898;SDS011;25571;47.876;10.642;2023-02-01T01:35:18;6.93;;;5.28;;
39898;SDS011;25571;47.876;10.642;2023-02-01T01:37:44;6.68;;;4.32;;
39898;SDS011;25571;47.876;10.642;2023-02-01T01:40:10;7.30;;;4.85;;
39898;SDS011;25571;47.876;10.642;2023-02-01T01:42:37;7.10;;;4.88;;
39898;SDS011;25571;47.876;10.642;2023-02-01T01:45:05;6.90;;;4.60;;
39898;SDS011;25571;47.876;10.642;2023-02-01T01:47:55;5.78;;;4.78;;
39898;SDS011;25571;47.876;10.642;2023-02-01T01:50:27;5.10;;;4.28;;
39898;SDS011;25571;47.876;10.642;2023-02-01T01:52:57;6.43;;;4.93;;
39898;SDS011;25571;47.876;10.642;2023-02-01T01:57:55;5.97;;;4.82;;
39898;SDS011;25571;47.876;10.642;2023-02-01T02:00:27;7.30;;;5.07;;
39898;SDS011;25571;47.876;10.642;2023-02-01T02:02:57;6.57;;;4.72;;
39898;SDS011;25571;47.876;10.642;2023-02-01T02:05:25;6.72;;;4.82;;
39898;SDS011;25571;47.876;10.642;2023-02-01T02:07:52;5.15;;;4.25;;
39898;SDS011;25571;47.876;10.642;2023-02-01T02:10:21;5.25;;;4.47;;
39898;SDS011;25571;47.876;10.642;2023-02-01T02:13:07;7.47;;;4.13;;
39898;SDS011;25571;47.876;10.642;2023-02-01T02:15:33;6.03;;;4.53;;
39898;SDS011;25571;47.876;10.642;2023-02-01T02:18:05;5.70;;;4.47;;
39898;SDS011;25571;47.876;10.642;2023-02-01T02:20:59;6.55;;;4.45;;
39898;SDS011;25571;47.876;10.642;2023-02-01T02:23:52;6.32;;;4.30;;
39898;SDS011;25571;47.876;10.642;2023-02-01T02:29:26;6.32;;;4.10;;
39898;SDS011;25571;47.876;10.642;2023-02-01T02:35:10;5.80;;;4.78;;
39898;SDS011;25571;47.876;10.642;2023-02-01T02:37:40;5.18;;;4.20;;
39898;SDS011;25571;47.876;10.642;2023-02-01T02:40:32;4.30;;;3.85;;
39898;SDS011;25571;47.876;10.642;2023-02-01T02:43:10;4.80;;;3.75;;
39898;SDS011;25571;47.876;10.642;2023-02-01T02:46:02;7.68;;;4.63;;
39898;SDS011;25571;47.876;10.642;2023-02-01T02:48:55;5.75;;;4.43;;
39898;SDS011;25571;47.876;10.642;2023-02-01T02:51:50;5.15;;;4.30;;
39898;SDS011;25571;47.876;10.642;2023-02-01T02:54:40;5.13;;;4.18;;
39898;SDS011;25571;47.876;10.642;2023-02-01T02:57:12;5.55;;;4.55;;
39898;SDS011;25571;47.876;10.642;2023-02-01T03:00:19;7.07;;;4.65;;
39898;SDS011;25571;47.876;10.642;2023-02-01T03:03:07;6.05;;;4.45;;
39898;SDS011;25571;47.876;10.642;2023-02-01T03:05:51;4.80;;;4.18;;
39898;SDS011;25571;47.876;10.642;2023-02-01T03:08:21;6.43;;;4.72;;
39898;SDS011;25571;47.876;10.642;2023-02-01T03:10:53;6.03;;;4.50;;
39898;SDS011;25571;47.876;10.642;2023-02-01T03:16:28;5.72;;;4.38;;
39898;SDS011;25571;47.876;10.642;2023-02-01T03:19:12;6.95;;;4.20;;
39898;SDS011;25571;47.876;10.642;2023-02-01T03:22:04;7.15;;;4.85;;
39898;SDS011;25571;47.876;10.642;2023-02-01T03:24:43;5.50;;;3.97;;
39898;SDS011;25571;47.876;10.642;2023-02-01T03:27:20;5.50;;;4.50;;
39898;SDS011;25571;47.876;10.642;2023-02-01T03:33:02;7.05;;;4.97;;
39898;SDS011;25571;47.876;10.642;2023-02-01T03:38:20;5.20;;;4.07;;
39898;SDS011;25571;47.876;10.642;2023-02-01T03:40:51;5.05;;;4.38;;
39898;SDS011;25571;47.876;10.642;2023-02-01T03:43:21;5.05;;;4.30;;
39898;SDS011;25571;47.876;10.642;2023-02-01T03:45:50;4.68;;;4.00;;
39898;SDS011;25571;47.876;10.642;2023-02-01T03:48:19;5.45;;;4.72;;
39898;SDS011;25571;47.876;10.642;2023-02-01T03:50:48;6.30;;;4.53;;
39898;SDS011;25571;47.876;10.642;2023-02-01T03:53:17;7.72;;;5.22;;
39898;SDS011;25571;47.876;10.642;2023-02-01T03:55:45;7.00;;;4.90;;
39898;SDS011;25571;47.876;10.642;2023-02-01T03:58:15;5.43;;;3.90;;
39898;SDS011;25571;47.876;10.642;2023-02-01T04:00:44;7.60;;;4.63;;
39898;SDS011;25571;47.876;10.642;2023-02-01T04:03:18;6.93;;;4.78;;
39898;SDS011;25571;47.876;10.642;2023-02-01T04:05:44;6.85;;;4.40;;
39898;SDS011;25571;47.876;10.642;2023-02-01T04:08:09;6.18;;;4.60;;
39898;SDS011;25571;47.876;10.642;2023-02-01T04:10:35;5.82;;;4.18;;
39898;SDS011;25571;47.876;10.642;2023-02-01T04:13:00;7.13;;;4.40;;
39898;SDS011;25571;47.876;10.642;2023-02-01T04:15:26;5.90;;;4.15;;
39898;SDS011;25571;47.876;10.642;2023-02-01T04:17:52;5.13;;;4.57;;
39898;SDS011;25571;47.876;10.642;2023-02-01T04:20:17;7.05;;;5.32;;
39898;SDS011;25571;47.876;10.642;2023-02-01T04:22:43;6.78;;;4.97;;
39898;SDS011;25571;47.876;10.642;2023-02-01T04:25:09;7.13;;;4.75;;
39898;SDS011;25571;47.876;10.642;2023-02-01T04:27:34;7.95;;;5.18;;
39898;SDS011;25571;47.876;10.642;2023-02-01T04:30:00;6.05;;;4.43;;
39898;SDS011;25571;47.876;10.642;2023-02-01T04:32:26;6.25;;;4.68;;
39898;SDS011;25571;47.876;10.642;2023-02-01T04:34:51;5.57;;;4.28;;
39898;SDS011;25571;47.876;10.642;2023-02-01T04:37:17;7.05;;;4.97;;
39898;SDS011;25571;47.876;10.642;2023-02-01T04:39:43;7.18;;;4.63;;
39898;SDS011;25571;47.876;10.642;2023-02-01T04:42:08;5.97;;;4.80;;
39898;SDS011;25571;47.876;10.642;2023-02-01T04:44:34;6.65;;;4.63;;
39898;SDS011;25571;47.876;10.642;2023-02-01T04:47:02;6.13;;;4.90;;
39898;SDS011;25571;47.876;10.642;2023-02-01T04:49:27;7.45;;;4.90;;
39898;SDS011;25571;47.876;10.642;2023-02-01T04:51:53;8.23;;;5.93;;
39898;SDS011;25571;47.876;10.642;2023-02-01T04:54:18;5.75;;;5.13;;
39898;SDS011;25571;47.876;10.642;2023-02-01T04:56:44;7.38;;;5.13;;
39898;SDS011;25571;47.876;10.642;2023-02-01T04:59:10;7.25;;;5.13;;
39898;SDS011;25571;47.876;10.642;2023-02-01T05:01:36;6.88;;;5.28;;
39898;SDS011;25571;47.876;10.642;2023-02-01T05:04:02;7.45;;;5.22;;
39898;SDS011;25571;47.876;10.642;2023-02-01T05:06:28;6.75;;;4.55;;
39898;SDS011;25571;47.876;10.642;2023-02-01T05:08:53;8.25;;;5.32;;
39898;SDS011;25571;47.876;10.642;2023-02-01T05:11:19;8.82;;;5.40;;
39898;SDS011;25571;47.876;10.642;2023-02-01T05:14:03;6.00;;;4.65;;
39898;SDS011;25571;47.876;10.642;2023-02-01T05:16:28;6.25;;;4.80;;
39898;SDS011;25571;47.876;10.642;2023-02-01T05:18:54;7.20;;;5.38;;
39898;SDS011;25571;47.876;10.642;2023-02-01T05:21:20;7.90;;;4.85;;
39898;SDS011;25571;47.876;10.642;2023-02-01T05:23:46;6.90;;;5.15;;
39898;SDS011;25571;47.876;10.642;2023-02-01T05:26:30;7.13;;;5.32;;
39898;SDS011;25571;47.876;10.642;2023-02-01T05:28:56;6.90;;;5.38;;
39898;SDS011;25571;47.876;10.642;2023-02-01T05:31:22;6.60;;;4.50;;
39898;SDS011;25571;47.876;10.642;2023-02-01T05:33:48;7.32;;;4.82;;
39898;SDS011;25571;47.876;10.642;2023-02-01T05:36:14;4.80;;;4.13;;
39898;SDS011;25571;47.876;10.642;2023-02-01T05:38:39;7.13;;;4.85;;
39898;SDS011;25571;47.876;10.642;2023-02-01T05:41:05;6.45;;;4.80;;
39898;SDS011;25571;47.876;10.642;2023-02-01T05:43:31;6.25;;;4.45;;
39898;SDS011;25571;47.876;10.642;2023-02-01T05:45:57;6.40;;;4.82;;
39898;SDS011;25571;47.876;10.642;2023-02-01T05:48:24;6.78;;;4.80;;
39898;SDS011;25571;47.876;10.642;2023-02-01T05:50:49;6.35;;;4.60;;
39898;SDS011;25571;47.876;10.642;2023-02-01T05:53:15;6.60;;;4.70;;
39898;SDS011;25571;47.876;10.642;2023-02-01T05:55:41;6.07;;;4.32;;
39898;SDS011;25571;47.876;10.642;2023-02-01T05:58:07;7.25;;;4.97;;
39898;SDS011;25571;47.876;10.642;2023-02-01T06:00:33;5.15;;;3.90;;
39898;SDS011;25571;47.876;10.642;2023-02-01T06:02:58;5.28;;;4.07;;
39898;SDS011;25571;47.876;10.642;2023-02-01T06:05:24;5.68;;;4.13;;
39898;SDS011;25571;47.876;10.642;2023-02-01T06:07:49;5.97;;;4.57;;
39898;SDS011;25571;47.876;10.642;2023-02-01T06:10:16;5.05;;;4.00;;
39898;SDS011;25571;47.876;10.642;2023-02-01T06:12:42;4.90;;;4.25;;
39898;SDS011;25571;47.876;10.642;2023-02-01T06:15:09;6.68;;;4.38;;
39898;SDS011;25571;47.876;10.642;2023-02-01T06:17:36;7.10;;;4.07;;
39898;SDS011;25571;47.876;10.642;2023-02-01T06:20:03;5.28;;;3.85;;
39898;SDS011;25571;47.876;10.642;2023-02-01T06:22:31;5.53;;;4.07;;
39898;SDS011;25571;47.876;10.642;2023-02-01T06:24:57;4.95;;;4.30;;
39898;SDS011;25571;47.876;10.642;2023-02-01T06:27:23;7.00;;;4.50;;
39898;SDS011;25571;47.876;10.642;2023-02-01T06:29:49;4.70;;;3.88;;
39898;SDS011;25571;47.876;10.642;2023-02-01T06:32:15;6.53;;;4.70;;
39898;SDS011;25571;47.876;10.642;2023-02-01T06:34:42;6.88;;;4.32;;
39898;SDS011;25571;47.876;10.642;2023-02-01T06:37:08;5.97;;;4.07;;
39898;SDS011;25571;47.876;10.642;2023-02-01T06:39:35;6.00;;;4.20;;
39898;SDS011;25571;47.876;10.642;2023-02-01T06:42:01;7.35;;;4.40;;
39898;SDS011;25571;47.876;10.642;2023-02-01T06:44:27;5.95;;;4.75;;
39898;SDS011;25571;47.876;10.642;2023-02-01T06:46:53;5.90;;;4.50;;
39898;SDS011;25571;47.876;10.642;2023-02-01T06:49:19;5.25;;;4.20;;
39898;SDS011;25571;47.876;10.642;2023-02-01T06:51:45;6.97;;;4.70;;
39898;SDS011;25571;47.876;10.642;2023-02-01T06:54:11;5.90;;;4.35;;
39898;SDS011;25571;47.876;10.642;2023-02-01T06:56:36;5.68;;;4.43;;
39898;SDS011;25571;47.876;10.642;2023-02-01T06:59:05;6.32;;;4.47;;
39898;SDS011;25571;47.876;10.642;2023-02-01T07:01:31;7.25;;;5.40;;
39898;SDS011;25571;47.876;10.642;2023-02-01T07:03:57;6.20;;;4.80;;
39898;SDS011;25571;47.876;10.642;2023-02-01T07:06:22;7.72;;;5.32;;
39898;SDS011;25571;47.876;10.642;2023-02-01T07:08:48;6.93;;;5.05;;
39898;SDS011;25571;47.876;10.642;2023-02-01T07:11:15;5.90;;;4.45;;
39898;SDS011;25571;47.876;10.642;2023-02-01T07:13:41;5.32;;;4.47;;
39898;SDS011;25571;47.876;10.642;2023-02-01T07:16:09;6.10;;;4.40;;
39898;SDS011;25571;47.876;10.642;2023-02-01T07:18:40;7.78;;;5.00;;
39898;SDS011;25571;47.876;10.642;2023-02-01T07:21:06;5.40;;;4.20;;
39898;SDS011;25571;47.876;10.642;2023-02-01T07:23:32;6.97;;;4.68;;
39898;SDS011;25571;47.876;10.642;2023-02-01T07:25:59;6.10;;;4.57;;
39898;SDS011;25571;47.876;10.642;2023-02-01T07:28:27;7.85;;;4.70;;
39898;SDS011;25571;47.876;10.642;2023-02-01T07:30:54;5.80;;;3.95;;
39898;SDS011;25571;47.876;10.642;2023-02-01T07:33:20;6.78;;;4.93;;
39898;SDS011;25571;47.876;10.642;2023-02-01T07:35:47;5.82;;;4.35;;
39898;SDS011;25571;47.876;10.642;2023-02-01T07:38:14;6.20;;;4.68;;
39898;SDS011;25571;47.876;10.642;2023-02-01T07:40:40;7.15;;;4.50;;
39898;SDS011;25571;47.876;10.642;2023-02-01T07:43:06;4.18;;;3.78;;
39898;SDS011;25571;47.876;10.642;2023-02-01T07:45:33;6.18;;;4.45;;
39898;SDS011;25571;47.876;10.642;2023-02-01T07:47:59;5.95;;;4.43;;
39898;SDS011;25571;47.876;10.642;2023-02-01T07:50:25;5.88;;;4.53;;
39898;SDS011;25571;47.876;10.642;2023-02-01T07:52:50;4.38;;;3.83;;
39898;SDS011;25571;47.876;10.642;2023-02-01T07:55:16;5.38;;;4.00;;
39898;SDS011;25571;47.876;10.642;2023-02-01T07:57:41;6.57;;;4.50;;
39898;SDS011;25571;47.876;10.642;2023-02-01T08:00:07;4.72;;;3.78;;
39898;SDS011;25571;47.876;10.642;2023-02-01T08:02:53;5.75;;;3.97;;
39898;SDS011;25571;47.876;10.642;2023-02-01T08:05:18;5.05;;;4.30;;
39898;SDS011;25571;47.876;10.642;2023-02-01T08:07:44;6.30;;;4.32;;
39898;SDS011;25571;47.876;10.642;2023-02-01T08:10:14;5.50;;;4.03;;
39898;SDS011;25571;47.876;10.642;2023-02-01T08:12:39;6.45;;;4.32;;
39898;SDS011;25571;47.876;10.642;2023-02-01T08:15:06;5.47;;;4.07;;
39898;SDS011;25571;47.876;10.642;2023-02-01T08:17:32;5.65;;;3.80;;
39898;SDS011;25571;47.876;10.642;2023-02-01T08:19:57;5.47;;;4.13;;
39898;SDS011;25571;47.876;10.642;2023-02-01T08:22:23;6.03;;;4.03;;
39898;SDS011;25571;47.876;10.642;2023-02-01T08:24:48;4.68;;;3.95;;
39898;SDS011;25571;47.876;10.642;2023-02-01T08:27:14;4.88;;;3.78;;
39898;SDS011;25571;47.876;10.642;2023-02-01T08:29:40;4.80;;;3.83;;
39898;SDS011;25571;47.876;10.642;2023-02-01T08:32:05;5.25;;;4.00;;
39898;SDS011;25571;47.876;10.642;2023-02-01T08:34:31;4.95;;;3.92;;
39898;SDS011;25571;47.876;10.642;2023-02-01T08:36:57;5.18;;;3.70;;
39898;SDS011;25571;47.876;10.642;2023-02-01T08:39:23;4.90;;;3.65;;
39898;SDS011;25571;47.876;10.642;2023-02-01T08:41:49;5.10;;;4.00;;
39898;SDS011;25571;47.876;10.642;2023-02-01T08:44:34;6.05;;;4.07;;
39898;SDS011;25571;47.876;10.642;2023-02-01T08:47:00;5.60;;;3.67;;
39898;SDS011;25571;47.876;10.642;2023-02-01T08:49:27;5.45;;;4.22;;
39898;SDS011;25571;47.876;10.642;2023-02-01T08:51:53;4.82;;;3.80;;
39898;SDS011;25571;47.876;10.642;2023-02-01T08:54:18;4.63;;;4.00;;
39898;SDS011;25571;47.876;10.642;2023-02-01T08:56:45;4.25;;;3.47;;
39898;SDS011;25571;47.876;10.642;2023-02-01T08:59:10;6.05;;;3.60;;
39898;SDS011;25571;47.876;10.642;2023-02-01T09:01:36;4.90;;;3.70;;
39898;SDS011;25571;47.876;10.642;2023-02-01T09:04:02;4.78;;;3.75;;
39898;SDS011;25571;47.876;10.642;2023-02-01T09:06:27;6.25;;;4.28;;
39898;SDS011;25571;47.876;10.642;2023-02-01T09:08:53;5.60;;;4.03;;
39898;SDS011;25571;47.876;10.642;2023-02-01T09:11:18;6.28;;;4.22;;
39898;SDS011;25571;47.876;10.642;2023-02-01T09:13:44;5.68;;;4.00;;
39898;SDS011;25571;47.876;10.642;2023-02-01T09:16:10;5.68;;;4.38;;
39898;SDS011;25571;47.876;10.642;2023-02-01T09:18:36;4.93;;;3.50;;
39898;SDS011;25571;47.876;10.642;2023-02-01T09:21:05;5.00;;;3.55;;
39898;SDS011;25571;47.876;10.642;2023-02-01T09:23:32;5.00;;;3.63;;
39898;SDS011;25571;47.876;10.642;2023-02-01T09:25:58;6.70;;;3.80;;
39898;SDS011;25571;47.876;10.642;2023-02-01T09:28:25;4.90;;;3.88;;
39898;SDS011;25571;47.876;10.642;2023-02-01T09:30:54;6.55;;;3.67;;
39898;SDS011;25571;47.876;10.642;2023-02-01T09:33:24;5.18;;;3.80;;
39898;SDS011;25571;47.876;10.642;2023-02-01T09:35:55;4.50;;;3.55;;
39898;SDS011;25571;47.876;10.642;2023-02-01T09:38:21;3.72;;;3.08;;
39898;SDS011;25571;47.876;10.642;2023-02-01T09:40:47;5.05;;;3.85;;
39898;SDS011;25571;47.876;10.642;2023-02-01T09:43:17;4.18;;;3.47;;
39898;SDS011;25571;47.876;10.642;2023-02-01T09:45:55;5.23;;;3.53;;
39898;SDS011;25571;47.876;10.642;2023-02-01T09:48:35;5.75;;;3.92;;
39898;SDS011;25571;47.876;10.642;2023-02-01T09:51:04;5.30;;;3.97;;
39898;SDS011;25571;47.876;10.642;2023-02-01T09:53:38;4.97;;;3.88;;
39898;SDS011;25571;47.876;10.642;2023-02-01T09:56:12;4.60;;;3.65;;
39898;SDS011;25571;47.876;10.642;2023-02-01T10:01:40;3.90;;;3.22;;
39898;SDS011;25571;47.876;10.642;2023-02-01T10:04:08;4.55;;;3.30;;
39898;SDS011;25571;47.876;10.642;2023-02-01T10:25:54;4.20;;;3.00;;
39898;SDS011;25571;47.876;10.642;2023-02-01T10:28:24;4.72;;;3.22;;
39898;SDS011;25571;47.876;10.642;2023-02-01T10:30:51;3.65;;;3.00;;
39898;SDS011;25571;47.876;10.642;2023-02-01T10:33:24;4.22;;;2.97;;
39898;SDS011;25571;47.876;10.642;2023-02-01T10:35:58;3.80;;;3.10;;
39898;SDS011;25571;47.876;10.642;2023-02-01T10:38:38;4.82;;;3.17;;
39898;SDS011;25571;47.876;10.642;2023-02-01T10:41:12;4.07;;;3.00;;
39898;SDS011;25571;47.876;10.642;2023-02-01T10:43:45;6.00;;;3.08;;
39898;SDS011;25571;47.876;10.642;2023-02-01T10:46:15;4.35;;;2.92;;
39898;SDS011;25571;47.876;10.642;2023-02-01T10:48:42;3.97;;;3.08;;
39898;SDS011;25571;47.876;10.642;2023-02-01T10:51:27;3.58;;;2.90;;
39898;SDS011;25571;47.876;10.642;2023-02-01T10:54:08;4.15;;;3.35;;
39898;SDS011;25571;47.876;10.642;2023-02-01T10:56:43;2.78;;;2.30;;
39898;SDS011;25571;47.876;10.642;2023-02-01T10:59:20;4.80;;;2.55;;
39898;SDS011;25571;47.876;10.642;2023-02-01T11:01:50;2.85;;;2.53;;
39898;SDS011;25571;47.876;10.642;2023-02-01T11:04:26;3.00;;;2.70;;
39898;SDS011;25571;47.876;10.642;2023-02-01T11:07:07;4.90;;;2.63;;
39898;SDS011;25571;47.876;10.642;2023-02-01T11:09:48;3.40;;;2.53;;
39898;SDS011;25571;47.876;10.642;2023-02-01T11:12:30;2.83;;;2.38;;
39898;SDS011;25571;47.876;10.642;2023-02-01T11:14:59;4.65;;;2.50;;
39898;SDS011;25571;47.876;10.642;2023-02-01T11:17:46;3.60;;;2.72;;
39898;SDS011;25571;47.876;10.642;2023-02-01T11:21:01;3.00;;;2.60;;
39898;SDS011;25571;47.876;10.642;2023-02-01T11:23:05;4.00;;;2.53;;
39898;SDS011;25571;47.876;10.642;2023-02-01T11:25:38;3.33;;;2.40;;
39898;SDS011;25571;47.876;10.642;2023-02-01T11:28:12;5.03;;;2.95;;
39898;SDS011;25571;47.876;10.642;2023-02-01T11:30:40;3.53;;;2.65;;
39898;SDS011;25571;47.876;10.642;2023-02-01T11:33:10;3.78;;;2.53;;
39898;SDS011;25571;47.876;10.642;2023-02-01T11:35:43;3.78;;;2.55;;
39898;SDS011;25571;47.876;10.642;2023-02-01T11:38:25;4.05;;;2.30;;
39898;SDS011;25571;47.876;10.642;2023-02-01T11:40:53;3.15;;;2.83;;
39898;SDS011;25571;47.876;10.642;2023-02-01T11:43:25;3.70;;;2.30;;
39898;SDS011;25571;47.876;10.642;2023-02-01T11:45:57;3.67;;;2.53;;
39898;SDS011;25571;47.876;10.642;2023-02-01T11:48:25;5.25;;;2.75;;
39898;SDS011;25571;47.876;10.642;2023-02-01T11:53:55;4.28;;;2.38;;
39898;SDS011;25571;47.876;10.642;2023-02-01T11:56:33;3.65;;;2.65;;
39898;SDS011;25571;47.876;10.642;2023-02-01T11:59:05;3.75;;;2.25;;
39898;SDS011;25571;47.876;10.642;2023-02-01T12:02:10;3.45;;;2.45;;
39898;SDS011;25571;47.876;10.642;2023-02-01T12:08:17;2.80;;;2.25;;
39898;SDS011;25571;47.876;10.642;2023-02-01T12:16:23;3.63;;;2.08;;
39898;SDS011;25571;47.876;10.642;2023-02-01T12:19:00;2.97;;;2.20;;
39898;SDS011;25571;47.876;10.642;2023-02-01T12:21:39;2.90;;;2.25;;
39898;SDS011;25571;47.876;10.642;2023-02-01T12:43:43;3.13;;;2.40;;
39898;SDS011;25571;47.876;10.642;2023-02-01T12:46:28;2.72;;;2.30;;
39898;SDS011;25571;47.876;10.642;2023-02-01T12:49:11;2.80;;;2.40;;
39898;SDS011;25571;47.876;10.642;2023-02-01T12:52:02;4.95;;;2.38;;
39898;SDS011;25571;47.876;10.642;2023-02-01T12:54:34;3.25;;;1.98;;
39898;SDS011;25571;47.876;10.642;2023-02-01T12:57:31;4.53;;;2.80;;
39898;SDS011;25571;47.876;10.642;2023-02-01T13:02:57;3.50;;;2.22;;
39898;SDS011;25571;47.876;10.642;2023-02-01T13:05:44;3.58;;;2.55;;
39898;SDS011;25571;47.876;10.642;2023-02-01T13:08:24;3.03;;;2.35;;
39898;SDS011;25571;47.876;10.642;2023-02-01T13:11:21;3.75;;;2.55;;
39898;SDS011;25571;47.876;10.642;2023-02-01T13:17:04;4.20;;;2.75;;
39898;SDS011;25571;47.876;10.642;2023-02-01T13:19:53;5.03;;;2.53;;
39898;SDS011;25571;47.876;10.642;2023-02-01T13:22:39;3.38;;;2.55;;
39898;SDS011;25571;47.876;10.642;2023-02-01T13:25:13;3.78;;;2.45;;
39898;SDS011;25571;47.876;10.642;2023-02-01T13:27:42;3.10;;;2.60;;
39898;SDS011;25571;47.876;10.642;2023-02-01T13:38:05;3.58;;;2.33;;
39898;SDS011;25571;47.876;10.642;2023-02-01T13:43:52;2.88;;;2.40;;
39898;SDS011;25571;47.876;10.642;2023-02-01T13:51:40;4.07;;;2.90;;
39898;SDS011;25571;47.876;10.642;2023-02-01T13:54:23;4.43;;;3.28;;
39898;SDS011;25571;47.876;10.642;2023-02-01T13:56:51;3.08;;;2.42;;
39898;SDS011;25571;47.876;10.642;2023-02-01T14:05:03;3.25;;;2.60;;
39898;SDS011;25571;47.876;10.642;2023-02-01T14:07:33;3.63;;;2.67;;
39898;SDS011;25571;47.876;10.642;2023-02-01T14:10:35;6.18;;;3.50;;
39898;SDS011;25571;47.876;10.642;2023-02-01T14:13:03;6.45;;;3.58;;
39898;SDS011;25571;47.876;10.642;2023-02-01T14:15:30;3.95;;;3.17;;
39898;SDS011;25571;47.876;10.642;2023-02-01T14:17:55;4.55;;;2.83;;
39898;SDS011;25571;47.876;10.642;2023-02-01T14:20:39;5.03;;;3.53;;
39898;SDS011;25571;47.876;10.642;2023-02-01T14:23:13;5.53;;;3.78;;
39898;SDS011;25571;47.876;10.642;2023-02-01T14:25:41;5.15;;;3.60;;
39898;SDS011;25571;47.876;10.642;2023-02-01T14:28:12;5.10;;;3.75;;
39898;SDS011;25571;47.876;10.642;2023-02-01T14:30:56;7.00;;;3.20;;
39898;SDS011;25571;47.876;10.642;2023-02-01T14:33:24;5.55;;;3.05;;
39898;SDS011;25571;47.876;10.642;2023-02-01T14:36:03;3.78;;;3.08;;
39898;SDS011;25571;47.876;10.642;2023-02-01T14:38:32;4.93;;;3.10;;
39898;SDS011;25571;47.876;10.642;2023-02-01T14:41:11;4.28;;;2.90;;
39898;SDS011;25571;47.876;10.642;2023-02-01T14:44:12;5.38;;;3.17;;
39898;SDS011;25571;47.876;10.642;2023-02-01T14:49:37;7.35;;;3.20;;
39898;SDS011;25571;47.876;10.642;2023-02-01T14:52:17;3.38;;;2.90;;
39898;SDS011;25571;47.876;10.642;2023-02-01T14:54:49;3.75;;;2.88;;
39898;SDS011;25571;47.876;10.642;2023-02-01T14:57:20;4.07;;;2.63;;
39898;SDS011;25571;47.876;10.642;2023-02-01T14:59:52;4.57;;;2.63;;
39898;SDS011;25571;47.876;10.642;2023-02-01T15:02:29;3.83;;;2.67;;
39898;SDS011;25571;47.876;10.642;2023-02-01T15:07:24;3.40;;;2.75;;
39898;SDS011;25571;47.876;10.642;2023-02-01T15:09:52;4.18;;;2.22;;
39898;SDS011;25571;47.876;10.642;2023-02-01T15:12:27;6.63;;;2.50;;
39898;SDS011;25571;47.876;10.642;2023-02-01T15:15:10;3.65;;;2.10;;
39898;SDS011;25571;47.876;10.642;2023-02-01T15:17:42;4.30;;;2.05;;
39898;SDS011;25571;47.876;10.642;2023-02-01T15:20:21;5.93;;;2.38;;
39898;SDS011;25571;47.876;10.642;2023-02-01T15:25:34;8.00;;;3.03;;
39898;SDS011;25571;47.876;10.642;2023-02-01T15:28:03;6.72;;;2.53;;
39898;SDS011;25571;47.876;10.642;2023-02-01T15:30:31;3.33;;;1.90;;
39898;SDS011;25571;47.876;10.642;2023-02-01T15:33:06;4.65;;;2.50;;
39898;SDS011;25571;47.876;10.642;2023-02-01T15:35:46;5.15;;;2.45;;
39898;SDS011;25571;47.876;10.642;2023-02-01T15:40:55;5.20;;;2.25;;
39898;SDS011;25571;47.876;10.642;2023-02-01T15:43:21;5.70;;;2.22;;
39898;SDS011;25571;47.876;10.642;2023-02-01T15:45:47;4.13;;;2.05;;
39898;SDS011;25571;47.876;10.642;2023-02-01T15:48:18;9.07;;;2.50;;
39898;SDS011;25571;47.876;10.642;2023-02-01T15:50:47;4.30;;;1.88;;
39898;SDS011;25571;47.876;10.642;2023-02-01T15:53:15;6.63;;;2.45;;
39898;SDS011;25571;47.876;10.642;2023-02-01T15:55:45;5.55;;;2.55;;
39898;SDS011;25571;47.876;10.642;2023-02-01T15:58:20;5.90;;;2.60;;
39898;SDS011;25571;47.876;10.642;2023-02-01T16:03:25;5.35;;;2.40;;
39898;SDS011;25571;47.876;10.642;2023-02-01T16:05:57;7.20;;;3.13;;
39898;SDS011;25571;47.876;10.642;2023-02-01T16:08:25;4.82;;;2.10;;
39898;SDS011;25571;47.876;10.642;2023-02-01T16:13:58;7.88;;;2.90;;
39898;SDS011;25571;47.876;10.642;2023-02-01T16:16:25;6.03;;;2.42;;
39898;SDS011;25571;47.876;10.642;2023-02-01T16:18:51;4.75;;;2.72;;
39898;SDS011;25571;47.876;10.642;2023-02-01T16:21:17;6.30;;;2.83;;
39898;SDS011;25571;47.876;10.642;2023-02-01T16:23:43;6.03;;;2.85;;
39898;SDS011;25571;47.876;10.642;2023-02-01T16:26:08;6.50;;;2.97;;
39898;SDS011;25571;47.876;10.642;2023-02-01T16:28:35;15.80;;;8.05;;
39898;SDS011;25571;47.876;10.642;2023-02-01T16:31:00;10.57;;;6.22;;
39898;SDS011;25571;47.876;10.642;2023-02-01T16:33:26;13.82;;;6.50;;
39898;SDS011;25571;47.876;10.642;2023-02-01T16:35:52;12.40;;;6.95;;
39898;SDS011;25571;47.876;10.642;2023-02-01T16:38:24;10.23;;;5.00;;
39898;SDS011;25571;47.876;10.642;2023-02-01T16:40:51;9.57;;;5.78;;
39898;SDS011;25571;47.876;10.642;2023-02-01T16:45:47;8.43;;;5.80;;
39898;SDS011;25571;47.876;10.642;2023-02-01T16:48:24;7.88;;;4.05;;
39898;SDS011;25571;47.876;10.642;2023-02-01T16:50:55;7.63;;;3.88;;
39898;SDS011;25571;47.876;10.642;2023-02-01T16:53:26;4.28;;;2.72;;